createdAt,value
2022-11-22T06:40:03.302Z,99454.38
2022-11-22T06:42:49.234Z,99446.56
2022-11-22T06:45:34.702Z,99463.59
2022-11-22T06:48:20.273Z,99445.53
2022-11-22T06:51:16.094Z,99480.97
2022-11-22T06:54:01.974Z,99481.03
2022-11-22T06:56:47.723Z,99473.31
2022-11-22T06:59:34.457Z,99467.22
2022-11-22T07:02:19.882Z,99464.63
2022-11-22T07:08:14.006Z,99463.56
2022-11-22T07:11:13.817Z,99461.84
2022-11-22T07:14:07.048Z,99464.75
2022-11-22T07:16:53.756Z,99461.91
2022-11-22T07:19:39.402Z,99476.34
2022-11-22T07:22:24.885Z,99486.50
2022-11-22T07:25:10.585Z,99485.66
2022-11-22T07:27:56.669Z,99492.41
2022-11-22T07:30:44.302Z,99495.78
2022-11-22T07:33:30.636Z,99507.63
2022-11-22T07:36:19.049Z,99496.63
2022-11-22T07:39:04.869Z,99492.31
2022-11-22T07:41:50.576Z,99493.00
2022-11-22T07:44:36.329Z,99486.50
2022-11-22T07:47:24.596Z,99495.09
2022-11-22T07:50:10.917Z,99495.28
2022-11-22T07:52:59.316Z,99496.81
2022-11-22T07:55:45.473Z,99490.53
2022-11-22T07:58:31.810Z,99499.03
2022-11-22T08:01:18.741Z,99516.25
2022-11-22T08:04:04.552Z,99512.88
2022-11-22T08:06:49.896Z,99522.41
2022-11-22T08:09:36.131Z,99512.31
2022-11-22T08:12:21.883Z,99512.19
2022-11-22T08:15:08.168Z,99513.91
2022-11-22T08:17:54.135Z,99515.56
2022-11-22T08:20:39.309Z,99507.75
2022-11-22T08:23:24.824Z,99502.28
2022-11-22T08:26:13.301Z,99511.81
2022-11-22T08:28:58.601Z,99505.78
2022-11-22T08:31:44.330Z,99493.91
2022-11-22T08:34:29.732Z,99510.47
2022-11-22T08:37:17.760Z,99511.00
2022-11-22T08:40:04.068Z,99500.75
2022-11-22T08:42:49.754Z,99515.38
2022-11-22T08:45:35.022Z,99492.00
2022-11-22T08:48:22.586Z,99526.06
2022-11-22T08:51:10.348Z,99497.28
2022-11-22T08:53:56.370Z,99515.19
2022-11-22T08:56:41.876Z,99536.47
2022-11-22T08:59:27.408Z,99530.63
2022-11-22T09:02:13.318Z,99488.22
2022-11-22T09:05:00.741Z,99545.19
2022-11-22T09:10:52.196Z,99546.41
2022-11-22T09:13:38.045Z,99537.00
2022-11-22T09:16:23.832Z,99557.81
2022-11-22T09:19:09.980Z,99560.03
2022-11-22T09:21:55.993Z,99506.31
2022-11-22T09:24:41.786Z,99518.34
2022-11-22T09:27:28.163Z,99564.47
2022-11-22T09:30:14.285Z,99555.88
2022-11-22T09:33:00.558Z,99567.75
2022-11-22T09:35:46.218Z,99531.97
2022-11-22T09:38:32.700Z,99548.59
2022-11-22T09:42:00.599Z,99574.47
2022-11-22T09:45:00.950Z,99578.22
2022-11-22T09:48:19.779Z,99574.03
2022-11-22T09:51:16.488Z,99569.75
2022-11-22T09:54:12.989Z,99575.75
2022-11-22T09:57:03.295Z,99581.03
2022-11-22T10:00:02.587Z,99591.28
2022-11-22T10:03:08.323Z,99586.78
2022-11-22T10:05:57.408Z,99527.00
2022-11-22T10:08:59.311Z,99578.94
2022-11-22T10:11:48.155Z,99588.22
2022-11-22T10:14:48.998Z,99593.34
2022-11-22T10:17:51.546Z,99590.47
2022-11-22T10:20:47.275Z,99532.09
2022-11-22T10:23:36.729Z,99559.91
2022-11-22T10:26:28.384Z,99589.63
2022-11-22T10:29:36.670Z,99588.22
2022-11-22T10:32:40.681Z,99587.28
2022-11-22T10:35:49.233Z,99581.16
2022-11-22T10:39:01.517Z,99579.81
2022-11-22T10:42:02.469Z,99545.47
2022-11-22T10:44:58.589Z,99541.19
2022-11-22T10:47:56.358Z,99587.13
2022-11-22T10:50:53.044Z,99575.00
2022-11-22T10:54:04.362Z,99549.84
2022-11-22T10:56:59.043Z,99565.50
2022-11-22T11:00:02.936Z,99567.44
2022-11-22T11:03:26.183Z,99567.72
2022-11-22T11:06:29.466Z,99568.81
2022-11-22T11:12:49.943Z,99576.44
2022-11-22T11:15:44.681Z,99557.75
2022-11-22T11:18:41.772Z,99558.81
2022-11-22T11:21:27.858Z,99535.59
2022-11-22T11:24:17.154Z,99564.78
2022-11-22T11:27:05.142Z,99562.41
2022-11-22T11:30:12.050Z,99543.28
2022-11-22T11:32:57.942Z,99536.53
2022-11-22T11:35:47.459Z,99525.75
2022-11-22T11:38:42.292Z,99557.41
2022-11-22T11:41:38.698Z,99541.84
2022-11-22T11:44:36.921Z,99552.69
2022-11-22T11:47:33.021Z,99535.75
2022-11-22T11:50:24.761Z,99554.78
2022-11-22T11:53:25.696Z,99504.97
2022-11-22T11:56:46.536Z,99536.53
2022-11-22T11:59:44.044Z,99534.91
2022-11-22T12:02:42.846Z,99530.78
2022-11-22T12:05:33.669Z,99527.47
2022-11-22T12:08:30.811Z,99535.53
2022-11-22T12:11:24.232Z,99538.22
2022-11-22T12:14:22.224Z,99520.69
2022-11-22T12:17:17.491Z,99501.22
2022-11-22T12:20:08.268Z,99500.53
2022-11-22T12:23:12.905Z,99543.16
2022-11-22T12:25:59.303Z,99540.72
2022-11-22T12:28:45.204Z,99512.47
2022-11-22T12:31:45.628Z,99527.47
2022-11-22T12:34:38.106Z,99568.19
2022-11-22T12:37:56.832Z,99576.84
2022-11-22T12:40:45.103Z,99573.50
2022-11-22T12:43:37.825Z,99549.28
2022-11-22T12:46:39.856Z,99575.06
2022-11-22T12:49:31.654Z,99575.59
2022-11-22T12:53:00.863Z,99571.22
2022-11-22T12:55:57.242Z,99540.19
2022-11-22T12:59:05.556Z,99561.69
2022-11-22T13:02:24.975Z,99551.88
2022-11-22T13:05:17.064Z,99528.41
2022-11-22T13:08:29.155Z,99569.16
2022-11-22T13:11:25.990Z,99524.41
2022-11-22T13:14:21.432Z,99538.47
2022-11-22T13:17:11.854Z,99529.81
2022-11-22T13:20:03.494Z,99559.44
2022-11-22T13:23:10.277Z,99566.56
2022-11-22T13:26:13.254Z,99559.88
2022-11-22T13:29:09.611Z,99559.19
2022-11-22T13:32:13.718Z,99563.81
2022-11-22T13:35:01.584Z,99567.09
2022-11-22T13:37:50.444Z,99566.41
2022-11-22T13:40:44.227Z,99549.81
2022-11-22T13:43:54.137Z,99502.56
2022-11-22T13:46:55.239Z,99550.84
2022-11-22T13:49:48.837Z,99554.16
2022-11-22T13:52:53.100Z,99555.25
2022-11-22T13:55:42.386Z,99556.28
2022-11-22T13:58:29.135Z,99555.38
2022-11-22T14:01:52.431Z,99557.31
2022-11-22T14:04:39.782Z,99570.78
2022-11-22T14:07:34.618Z,99576.38
2022-11-22T14:11:00.393Z,99571.34
2022-11-22T14:13:59.973Z,99572.88
2022-11-22T14:17:08.056Z,99545.03
2022-11-22T14:20:01.867Z,99574.53
2022-11-22T14:23:05.763Z,99564.09
2022-11-22T14:26:15.216Z,99566.97
2022-11-22T14:29:10.145Z,99563.72
2022-11-22T14:32:02.413Z,99562.25
2022-11-22T14:35:28.958Z,99557.03
2022-11-22T14:38:28.704Z,99559.16
2022-11-22T14:41:26.385Z,99549.81
2022-11-22T14:44:28.064Z,99520.31
2022-11-22T14:47:14.861Z,99551.06
2022-11-22T14:50:01.568Z,99566.59
2022-11-22T14:52:48.492Z,99578.31
2022-11-22T14:55:35.300Z,99554.63
2022-11-22T14:58:27.428Z,99555.63
2022-11-22T15:01:28.162Z,99586.50
2022-11-22T15:09:12.365Z,99602.09
2022-11-22T15:09:13.281Z,99592.75
2022-11-22T15:10:49.313Z,99600.03
2022-11-22T15:13:53.112Z,99608.91
